Terminal Aerodrome Forecast
Issued by NWS

Home | Current Version | Previous Version | Text Only | Print | Product List | Glossary Off
Versions: 1 2 3 4 5 6 7 8 9 10 11 12 13 14

897
FTUS43 KABR 022321
TAFPIR
TAF
KPIR 022321Z 0300/0324 28008KT P6SM VCSH SCT090
     FM030100 VRB05KT P6SM SCT150
     FM031600 30008KT P6SM FEW250
     FM031900 32012KT P6SM FEW250=

USA.gov is the U.S. government's official web portal to all federal, state and local government web resources and services.